Airfield :
LOGIN :

Register | Disclaimer

   EN    FR    IT 

 










Legend :    VFR   Marginal VFR   IFR   Intensive IFR   Very Intensive IFR
Visi :
Ceiling :
>= 8 km
>= 3000ft
5 to 8 km
1000 to 3000 ft
1500m to 5 km
500 to 1000 ft
800 to 1500m
200 to 500 ft
< 800m
< 200 ft
Symbols :   Thunderstorms  Fog  Heavy snow  Heavy precipitations  Wind > 20 kt
SIGMETs :     Misc.  Thunderstorms  Icing  Turbulence  Mountain Waves  Volcanic Ashes






- Airport Elevation : 268 ft
- IATA code : BFS


EGAA - Belfast Aldergrove

CURRENT METAR :
  • 300750Z 25010KT 230V300 9999 SCT035 BKN041 09/08 Q1008

EXPIRED METARs :
  • 300720Z 25009KT 9999 FEW012 SCT025 BKN040 08/08 Q1007
  • 300650Z 26012KT 9999 FEW006 SCT012 BKN025 09/08 Q1007
  • 300620Z 25012KT 6000 FEW018 BKN025 BKN030 09/08 Q1006
  • 300550Z 25012KT 9999 FEW008 SCT019 BKN025 09/09 Q1005
  • 300520Z 24011KT 9999 BKN018 BKN024 OVC047 10/09 Q1005

TAF AMD TAF EGAA
Valid from the 30 at 06:00 until the 31 at 06:00 UTC


300632Z 3006/3106 24010KT 9999 FEW020 SCT040
TEMPO 3006/3008 6000 -RADZ
BECMG 3016/3019 13005KT
BECMG 3100/3103 12020G35KT SCT008 BKN012
TEMPO 3102/3106 6000 RA SCT004 BKN008
BECMG 3103/3106 15018G32KT
PROB40
TEMPO 3103/3106 3000 +RA BKN004



MET'MAP, your aeronautical weather chart ! - Copyright ORBIFLY December 2007 - Disclaimer

ORBIFLY MET'MAP TEAM :

Programming & Development : Alexandra Zaïnal
Concept & original design : Baudouin d'Aumeries
Assistance for programming : Marc-Olivier Méhu
Technical & hardware support : Manuel Goepfert

Contact : metmap@orbifly.com




SOURCES & CREDITS :

   NOAA